sensor_id;sensor_type;location;lat;lon;timestamp;P1;durP1;ratioP1;P2;durP2;ratioP2
76155;SDS011;64906;51.290;7.348;2023-10-31T00:02:23;16.67;;;11.27;;
76155;SDS011;64906;51.290;7.348;2023-10-31T00:04:48;15.93;;;11.53;;
76155;SDS011;64906;51.290;7.348;2023-10-31T00:07:13;15.17;;;10.83;;
76155;SDS011;64906;51.290;7.348;2023-10-31T00:09:39;15.10;;;11.33;;
76155;SDS011;64906;51.290;7.348;2023-10-31T00:12:04;14.98;;;10.80;;
76155;SDS011;64906;51.290;7.348;2023-10-31T00:14:30;16.20;;;11.23;;
76155;SDS011;64906;51.290;7.348;2023-10-31T00:16:55;14.10;;;10.60;;
76155;SDS011;64906;51.290;7.348;2023-10-31T00:19:20;14.97;;;10.63;;
76155;SDS011;64906;51.290;7.348;2023-10-31T00:21:46;14.40;;;10.03;;
76155;SDS011;64906;51.290;7.348;2023-10-31T00:24:11;17.20;;;11.00;;
76155;SDS011;64906;51.290;7.348;2023-10-31T00:26:37;14.07;;;10.32;;
76155;SDS011;64906;51.290;7.348;2023-10-31T00:29:02;15.77;;;10.73;;
76155;SDS011;64906;51.290;7.348;2023-10-31T00:31:28;15.30;;;10.77;;
76155;SDS011;64906;51.290;7.348;2023-10-31T00:33:53;14.53;;;9.17;;
76155;SDS011;64906;51.290;7.348;2023-10-31T00:36:18;14.63;;;9.33;;
76155;SDS011;64906;51.290;7.348;2023-10-31T00:38:44;14.70;;;10.40;;
76155;SDS011;64906;51.290;7.348;2023-10-31T00:41:09;15.37;;;10.47;;
76155;SDS011;64906;51.290;7.348;2023-10-31T00:43:34;14.23;;;10.23;;
76155;SDS011;64906;51.290;7.348;2023-10-31T00:46:01;14.20;;;10.43;;
76155;SDS011;64906;51.290;7.348;2023-10-31T00:48:27;14.82;;;10.68;;
76155;SDS011;64906;51.290;7.348;2023-10-31T00:50:52;15.30;;;11.03;;
76155;SDS011;64906;51.290;7.348;2023-10-31T00:53:18;13.40;;;9.67;;
76155;SDS011;64906;51.290;7.348;2023-10-31T00:55:43;13.02;;;9.82;;
76155;SDS011;64906;51.290;7.348;2023-10-31T00:58:09;13.82;;;9.70;;
76155;SDS011;64906;51.290;7.348;2023-10-31T01:00:35;13.57;;;9.45;;
76155;SDS011;64906;51.290;7.348;2023-10-31T01:03:02;13.07;;;8.85;;
76155;SDS011;64906;51.290;7.348;2023-10-31T01:05:28;14.52;;;10.38;;
76155;SDS011;64906;51.290;7.348;2023-10-31T01:07:53;13.70;;;9.45;;
76155;SDS011;64906;51.290;7.348;2023-10-31T01:10:19;14.23;;;9.90;;
76155;SDS011;64906;51.290;7.348;2023-10-31T01:12:45;13.32;;;9.45;;
76155;SDS011;64906;51.290;7.348;2023-10-31T01:15:10;13.48;;;9.80;;
76155;SDS011;64906;51.290;7.348;2023-10-31T01:17:35;13.50;;;9.77;;
76155;SDS011;64906;51.290;7.348;2023-10-31T01:20:01;13.67;;;8.63;;
76155;SDS011;64906;51.290;7.348;2023-10-31T01:22:26;15.30;;;10.20;;
76155;SDS011;64906;51.290;7.348;2023-10-31T01:24:52;13.63;;;9.23;;
76155;SDS011;64906;51.290;7.348;2023-10-31T01:27:17;12.13;;;8.83;;
76155;SDS011;64906;51.290;7.348;2023-10-31T01:29:42;13.20;;;9.43;;
76155;SDS011;64906;51.290;7.348;2023-10-31T01:32:08;11.93;;;8.13;;
76155;SDS011;64906;51.290;7.348;2023-10-31T01:34:33;13.27;;;9.13;;
76155;SDS011;64906;51.290;7.348;2023-10-31T01:36:58;12.87;;;9.10;;
76155;SDS011;64906;51.290;7.348;2023-10-31T01:39:23;12.13;;;8.50;;
76155;SDS011;64906;51.290;7.348;2023-10-31T01:41:49;13.07;;;9.30;;
76155;SDS011;64906;51.290;7.348;2023-10-31T01:44:14;12.47;;;8.33;;
76155;SDS011;64906;51.290;7.348;2023-10-31T01:46:39;11.50;;;8.07;;
76155;SDS011;64906;51.290;7.348;2023-10-31T01:49:05;11.93;;;8.87;;
76155;SDS011;64906;51.290;7.348;2023-10-31T01:51:30;12.77;;;8.18;;
76155;SDS011;64906;51.290;7.348;2023-10-31T01:53:55;11.45;;;8.52;;
76155;SDS011;64906;51.290;7.348;2023-10-31T01:56:22;12.95;;;9.15;;
76155;SDS011;64906;51.290;7.348;2023-10-31T01:58:47;11.63;;;8.43;;
76155;SDS011;64906;51.290;7.348;2023-10-31T02:01:14;12.50;;;8.57;;
76155;SDS011;64906;51.290;7.348;2023-10-31T02:03:39;10.63;;;7.63;;
76155;SDS011;64906;51.290;7.348;2023-10-31T02:06:04;12.33;;;8.03;;
76155;SDS011;64906;51.290;7.348;2023-10-31T02:08:30;11.43;;;8.43;;
76155;SDS011;64906;51.290;7.348;2023-10-31T02:10:55;11.15;;;7.45;;
76155;SDS011;64906;51.290;7.348;2023-10-31T02:13:21;13.27;;;8.43;;
76155;SDS011;64906;51.290;7.348;2023-10-31T02:15:46;12.55;;;8.25;;
76155;SDS011;64906;51.290;7.348;2023-10-31T02:18:12;10.77;;;6.77;;
76155;SDS011;64906;51.290;7.348;2023-10-31T02:20:38;12.07;;;8.10;;
76155;SDS011;64906;51.290;7.348;2023-10-31T02:23:03;11.82;;;8.35;;
76155;SDS011;64906;51.290;7.348;2023-10-31T02:25:29;12.15;;;8.30;;
76155;SDS011;64906;51.290;7.348;2023-10-31T02:27:55;10.95;;;7.60;;
76155;SDS011;64906;51.290;7.348;2023-10-31T02:30:20;12.07;;;8.30;;
76155;SDS011;64906;51.290;7.348;2023-10-31T02:32:45;12.07;;;8.50;;
76155;SDS011;64906;51.290;7.348;2023-10-31T02:35:11;11.38;;;7.90;;
76155;SDS011;64906;51.290;7.348;2023-10-31T02:37:36;10.93;;;7.85;;
76155;SDS011;64906;51.290;7.348;2023-10-31T02:40:02;11.73;;;8.07;;
76155;SDS011;64906;51.290;7.348;2023-10-31T02:42:28;11.38;;;8.02;;
76155;SDS011;64906;51.290;7.348;2023-10-31T02:44:53;11.10;;;7.70;;
76155;SDS011;64906;51.290;7.348;2023-10-31T02:47:18;11.23;;;7.73;;
76155;SDS011;64906;51.290;7.348;2023-10-31T02:49:44;11.70;;;8.15;;
76155;SDS011;64906;51.290;7.348;2023-10-31T02:52:09;10.33;;;7.57;;
76155;SDS011;64906;51.290;7.348;2023-10-31T02:54:35;10.70;;;7.68;;
76155;SDS011;64906;51.290;7.348;2023-10-31T02:57:00;10.53;;;7.63;;
76155;SDS011;64906;51.290;7.348;2023-10-31T02:59:25;11.27;;;7.77;;
76155;SDS011;64906;51.290;7.348;2023-10-31T03:01:51;10.73;;;7.80;;
76155;SDS011;64906;51.290;7.348;2023-10-31T03:04:17;11.13;;;7.90;;
76155;SDS011;64906;51.290;7.348;2023-10-31T03:06:43;11.23;;;7.97;;
76155;SDS011;64906;51.290;7.348;2023-10-31T03:09:08;11.37;;;7.80;;
76155;SDS011;64906;51.290;7.348;2023-10-31T03:11:33;10.70;;;7.93;;
76155;SDS011;64906;51.290;7.348;2023-10-31T03:13:58;9.93;;;7.03;;
76155;SDS011;64906;51.290;7.348;2023-10-31T03:16:24;11.07;;;7.65;;
76155;SDS011;64906;51.290;7.348;2023-10-31T03:18:49;9.85;;;7.15;;
76155;SDS011;64906;51.290;7.348;2023-10-31T03:21:15;10.63;;;7.30;;
76155;SDS011;64906;51.290;7.348;2023-10-31T03:23:41;10.20;;;7.40;;
76155;SDS011;64906;51.290;7.348;2023-10-31T03:26:07;10.35;;;6.75;;
76155;SDS011;64906;51.290;7.348;2023-10-31T03:28:32;11.37;;;7.43;;
76155;SDS011;64906;51.290;7.348;2023-10-31T03:30:58;9.73;;;7.00;;
76155;SDS011;64906;51.290;7.348;2023-10-31T03:33:23;10.20;;;7.17;;
76155;SDS011;64906;51.290;7.348;2023-10-31T03:35:49;10.73;;;7.22;;
76155;SDS011;64906;51.290;7.348;2023-10-31T03:38:14;10.02;;;6.90;;
76155;SDS011;64906;51.290;7.348;2023-10-31T03:40:39;8.83;;;6.13;;
76155;SDS011;64906;51.290;7.348;2023-10-31T03:43:04;10.67;;;7.10;;
76155;SDS011;64906;51.290;7.348;2023-10-31T03:45:30;9.98;;;7.05;;
76155;SDS011;64906;51.290;7.348;2023-10-31T03:47:55;9.77;;;6.70;;
76155;SDS011;64906;51.290;7.348;2023-10-31T03:50:21;9.13;;;6.30;;
76155;SDS011;64906;51.290;7.348;2023-10-31T03:52:46;10.77;;;7.38;;
76155;SDS011;64906;51.290;7.348;2023-10-31T03:55:11;10.87;;;6.90;;
76155;SDS011;64906;51.290;7.348;2023-10-31T03:57:36;8.87;;;6.30;;
76155;SDS011;64906;51.290;7.348;2023-10-31T04:00:02;9.88;;;6.75;;
76155;SDS011;64906;51.290;7.348;2023-10-31T04:02:29;9.50;;;6.85;;
76155;SDS011;64906;51.290;7.348;2023-10-31T04:04:55;9.40;;;6.53;;
76155;SDS011;64906;51.290;7.348;2023-10-31T04:07:20;9.38;;;6.47;;
76155;SDS011;64906;51.290;7.348;2023-10-31T04:09:45;8.60;;;5.80;;
76155;SDS011;64906;51.290;7.348;2023-10-31T04:12:11;9.43;;;6.28;;
76155;SDS011;64906;51.290;7.348;2023-10-31T04:14:37;8.90;;;6.43;;
76155;SDS011;64906;51.290;7.348;2023-10-31T04:17:03;8.75;;;6.22;;
76155;SDS011;64906;51.290;7.348;2023-10-31T04:19:29;8.82;;;6.25;;
76155;SDS011;64906;51.290;7.348;2023-10-31T04:21:54;9.13;;;6.23;;
76155;SDS011;64906;51.290;7.348;2023-10-31T04:24:19;9.43;;;6.17;;
76155;SDS011;64906;51.290;7.348;2023-10-31T04:26:45;8.40;;;5.90;;
76155;SDS011;64906;51.290;7.348;2023-10-31T04:29:10;9.40;;;6.25;;
76155;SDS011;64906;51.290;7.348;2023-10-31T04:31:35;9.07;;;6.55;;
76155;SDS011;64906;51.290;7.348;2023-10-31T04:34:01;9.50;;;6.43;;
76155;SDS011;64906;51.290;7.348;2023-10-31T04:36:26;9.30;;;6.50;;
76155;SDS011;64906;51.290;7.348;2023-10-31T04:38:51;9.63;;;6.30;;
76155;SDS011;64906;51.290;7.348;2023-10-31T04:41:17;9.20;;;6.30;;
76155;SDS011;64906;51.290;7.348;2023-10-31T04:43:42;9.20;;;6.60;;
76155;SDS011;64906;51.290;7.348;2023-10-31T04:46:07;8.40;;;5.30;;
76155;SDS011;64906;51.290;7.348;2023-10-31T04:48:33;8.87;;;5.77;;
76155;SDS011;64906;51.290;7.348;2023-10-31T04:50:58;9.47;;;6.37;;
76155;SDS011;64906;51.290;7.348;2023-10-31T04:53:24;9.23;;;6.18;;
76155;SDS011;64906;51.290;7.348;2023-10-31T04:55:49;8.80;;;6.25;;
76155;SDS011;64906;51.290;7.348;2023-10-31T04:58:14;8.20;;;5.80;;
76155;SDS011;64906;51.290;7.348;2023-10-31T05:00:40;9.55;;;6.32;;
76155;SDS011;64906;51.290;7.348;2023-10-31T05:03:06;8.82;;;6.07;;
76155;SDS011;64906;51.290;7.348;2023-10-31T05:05:31;9.23;;;6.05;;
76155;SDS011;64906;51.290;7.348;2023-10-31T05:07:56;8.07;;;5.60;;
76155;SDS011;64906;51.290;7.348;2023-10-31T05:10:23;8.07;;;5.95;;
76155;SDS011;64906;51.290;7.348;2023-10-31T05:12:48;9.02;;;5.47;;
76155;SDS011;64906;51.290;7.348;2023-10-31T05:15:13;8.35;;;5.78;;
76155;SDS011;64906;51.290;7.348;2023-10-31T05:17:39;8.13;;;5.23;;
76155;SDS011;64906;51.290;7.348;2023-10-31T05:20:04;8.93;;;5.85;;
76155;SDS011;64906;51.290;7.348;2023-10-31T05:22:30;8.63;;;5.53;;
76155;SDS011;64906;51.290;7.348;2023-10-31T05:24:55;8.97;;;5.67;;
76155;SDS011;64906;51.290;7.348;2023-10-31T05:27:20;8.73;;;5.70;;
76155;SDS011;64906;51.290;7.348;2023-10-31T05:29:46;9.57;;;5.73;;
76155;SDS011;64906;51.290;7.348;2023-10-31T05:32:11;8.30;;;5.57;;
76155;SDS011;64906;51.290;7.348;2023-10-31T05:34:36;8.17;;;5.60;;
76155;SDS011;64906;51.290;7.348;2023-10-31T05:37:02;7.33;;;5.20;;
76155;SDS011;64906;51.290;7.348;2023-10-31T05:39:27;8.30;;;5.38;;
76155;SDS011;64906;51.290;7.348;2023-10-31T05:41:52;8.60;;;5.53;;
76155;SDS011;64906;51.290;7.348;2023-10-31T05:44:17;8.33;;;5.63;;
76155;SDS011;64906;51.290;7.348;2023-10-31T05:46:43;8.63;;;5.47;;
76155;SDS011;64906;51.290;7.348;2023-10-31T05:49:09;8.10;;;5.37;;
76155;SDS011;64906;51.290;7.348;2023-10-31T05:51:35;7.57;;;5.15;;
76155;SDS011;64906;51.290;7.348;2023-10-31T05:54:00;7.45;;;4.90;;
76155;SDS011;64906;51.290;7.348;2023-10-31T05:56:26;7.90;;;5.40;;
76155;SDS011;64906;51.290;7.348;2023-10-31T05:58:51;8.20;;;5.00;;
76155;SDS011;64906;51.290;7.348;2023-10-31T06:01:17;9.07;;;5.40;;
76155;SDS011;64906;51.290;7.348;2023-10-31T06:03:42;8.02;;;5.28;;
76155;SDS011;64906;51.290;7.348;2023-10-31T06:06:09;7.22;;;5.00;;
76155;SDS011;64906;51.290;7.348;2023-10-31T06:08:35;7.38;;;5.15;;
76155;SDS011;64906;51.290;7.348;2023-10-31T06:11:00;7.23;;;4.70;;
76155;SDS011;64906;51.290;7.348;2023-10-31T06:13:26;7.47;;;5.00;;
76155;SDS011;64906;51.290;7.348;2023-10-31T06:15:53;7.65;;;5.05;;
76155;SDS011;64906;51.290;7.348;2023-10-31T06:18:19;6.72;;;4.50;;
76155;SDS011;64906;51.290;7.348;2023-10-31T06:20:44;6.70;;;4.70;;
76155;SDS011;64906;51.290;7.348;2023-10-31T06:23:10;7.75;;;5.15;;
76155;SDS011;64906;51.290;7.348;2023-10-31T06:25:35;7.93;;;5.18;;
76155;SDS011;64906;51.290;7.348;2023-10-31T06:28:00;7.90;;;5.47;;
76155;SDS011;64906;51.290;7.348;2023-10-31T06:30:26;8.00;;;5.00;;
76155;SDS011;64906;51.290;7.348;2023-10-31T06:32:52;7.03;;;5.00;;
76155;SDS011;64906;51.290;7.348;2023-10-31T06:35:18;6.78;;;4.28;;
76155;SDS011;64906;51.290;7.348;2023-10-31T06:37:43;6.75;;;4.30;;
76155;SDS011;64906;51.290;7.348;2023-10-31T06:40:08;6.67;;;4.27;;
76155;SDS011;64906;51.290;7.348;2023-10-31T06:42:35;7.00;;;4.47;;
76155;SDS011;64906;51.290;7.348;2023-10-31T06:45:00;7.72;;;4.60;;
76155;SDS011;64906;51.290;7.348;2023-10-31T06:47:25;7.00;;;4.10;;
76155;SDS011;64906;51.290;7.348;2023-10-31T06:49:51;6.67;;;4.40;;
76155;SDS011;64906;51.290;7.348;2023-10-31T06:52:16;6.33;;;4.30;;
76155;SDS011;64906;51.290;7.348;2023-10-31T06:54:41;6.83;;;4.20;;
76155;SDS011;64906;51.290;7.348;2023-10-31T06:57:07;6.70;;;4.47;;
76155;SDS011;64906;51.290;7.348;2023-10-31T06:59:32;6.47;;;4.30;;
76155;SDS011;64906;51.290;7.348;2023-10-31T07:01:57;6.83;;;4.00;;
76155;SDS011;64906;51.290;7.348;2023-10-31T07:04:22;6.40;;;4.40;;
76155;SDS011;64906;51.290;7.348;2023-10-31T07:06:48;7.13;;;4.63;;
76155;SDS011;64906;51.290;7.348;2023-10-31T07:09:13;6.53;;;4.40;;
76155;SDS011;64906;51.290;7.348;2023-10-31T07:11:39;5.78;;;3.95;;
76155;SDS011;64906;51.290;7.348;2023-10-31T07:14:04;7.32;;;4.38;;
76155;SDS011;64906;51.290;7.348;2023-10-31T07:16:31;6.27;;;4.27;;
76155;SDS011;64906;51.290;7.348;2023-10-31T07:18:57;5.97;;;3.90;;
76155;SDS011;64906;51.290;7.348;2023-10-31T07:21:22;6.93;;;4.30;;
76155;SDS011;64906;51.290;7.348;2023-10-31T07:23:47;6.53;;;3.93;;
76155;SDS011;64906;51.290;7.348;2023-10-31T07:26:13;7.07;;;4.67;;
76155;SDS011;64906;51.290;7.348;2023-10-31T07:28:38;6.57;;;4.40;;
76155;SDS011;64906;51.290;7.348;2023-10-31T07:31:04;6.27;;;3.73;;
76155;SDS011;64906;51.290;7.348;2023-10-31T07:33:29;6.18;;;3.92;;
76155;SDS011;64906;51.290;7.348;2023-10-31T07:35:55;6.80;;;4.13;;
76155;SDS011;64906;51.290;7.348;2023-10-31T07:38:20;6.67;;;4.17;;
76155;SDS011;64906;51.290;7.348;2023-10-31T07:40:45;5.97;;;4.07;;
76155;SDS011;64906;51.290;7.348;2023-10-31T07:43:12;6.85;;;4.05;;
76155;SDS011;64906;51.290;7.348;2023-10-31T07:45:38;5.53;;;3.40;;
76155;SDS011;64906;51.290;7.348;2023-10-31T07:48:03;6.07;;;3.97;;
76155;SDS011;64906;51.290;7.348;2023-10-31T07:50:28;6.50;;;4.00;;
76155;SDS011;64906;51.290;7.348;2023-10-31T07:52:54;5.93;;;3.90;;
76155;SDS011;64906;51.290;7.348;2023-10-31T07:55:19;6.43;;;3.70;;
76155;SDS011;64906;51.290;7.348;2023-10-31T07:57:44;5.97;;;3.83;;
76155;SDS011;64906;51.290;7.348;2023-10-31T08:00:10;6.20;;;4.20;;
76155;SDS011;64906;51.290;7.348;2023-10-31T08:02:36;6.65;;;3.85;;
76155;SDS011;64906;51.290;7.348;2023-10-31T08:05:01;7.17;;;4.23;;
76155;SDS011;64906;51.290;7.348;2023-10-31T08:07:27;6.40;;;3.70;;
76155;SDS011;64906;51.290;7.348;2023-10-31T08:09:55;5.75;;;3.72;;
76155;SDS011;64906;51.290;7.348;2023-10-31T08:12:21;5.57;;;3.80;;
76155;SDS011;64906;51.290;7.348;2023-10-31T08:14:46;6.50;;;3.60;;
76155;SDS011;64906;51.290;7.348;2023-10-31T08:17:11;5.32;;;3.55;;
76155;SDS011;64906;51.290;7.348;2023-10-31T08:19:37;6.30;;;3.85;;
76155;SDS011;64906;51.290;7.348;2023-10-31T08:22:02;5.70;;;3.60;;
76155;SDS011;64906;51.290;7.348;2023-10-31T08:24:27;5.53;;;3.70;;
76155;SDS011;64906;51.290;7.348;2023-10-31T08:26:53;5.70;;;3.70;;
76155;SDS011;64906;51.290;7.348;2023-10-31T08:29:18;5.50;;;3.47;;
76155;SDS011;64906;51.290;7.348;2023-10-31T08:31:43;5.67;;;3.53;;
76155;SDS011;64906;51.290;7.348;2023-10-31T08:34:09;6.10;;;4.03;;
76155;SDS011;64906;51.290;7.348;2023-10-31T08:36:35;5.72;;;3.80;;
76155;SDS011;64906;51.290;7.348;2023-10-31T08:39:00;5.68;;;3.75;;
76155;SDS011;64906;51.290;7.348;2023-10-31T08:41:26;5.83;;;3.87;;
76155;SDS011;64906;51.290;7.348;2023-10-31T08:43:51;6.23;;;3.70;;
76155;SDS011;64906;51.290;7.348;2023-10-31T08:46:16;6.60;;;3.80;;
76155;SDS011;64906;51.290;7.348;2023-10-31T08:48:42;6.13;;;3.78;;
76155;SDS011;64906;51.290;7.348;2023-10-31T08:51:07;5.17;;;3.30;;
76155;SDS011;64906;51.290;7.348;2023-10-31T08:53:33;5.72;;;3.65;;
76155;SDS011;64906;51.290;7.348;2023-10-31T08:55:58;5.63;;;3.33;;
76155;SDS011;64906;51.290;7.348;2023-10-31T08:58:23;5.83;;;3.50;;
76155;SDS011;64906;51.290;7.348;2023-10-31T09:00:48;4.83;;;3.20;;
76155;SDS011;64906;51.290;7.348;2023-10-31T09:03:14;5.78;;;3.65;;
76155;SDS011;64906;51.290;7.348;2023-10-31T09:05:40;5.90;;;4.00;;
76155;SDS011;64906;51.290;7.348;2023-10-31T09:08:05;5.80;;;3.45;;
76155;SDS011;64906;51.290;7.348;2023-10-31T09:10:31;4.88;;;3.10;;
76155;SDS011;64906;51.290;7.348;2023-10-31T09:12:57;5.93;;;3.53;;
76155;SDS011;64906;51.290;7.348;2023-10-31T09:15:23;4.77;;;2.80;;
76155;SDS011;64906;51.290;7.348;2023-10-31T09:17:49;6.32;;;3.90;;
76155;SDS011;64906;51.290;7.348;2023-10-31T09:20:14;6.00;;;3.33;;
76155;SDS011;64906;51.290;7.348;2023-10-31T09:22:39;5.72;;;3.70;;
76155;SDS011;64906;51.290;7.348;2023-10-31T09:25:05;4.82;;;3.15;;
76155;SDS011;64906;51.290;7.348;2023-10-31T09:27:30;4.88;;;3.15;;
76155;SDS011;64906;51.290;7.348;2023-10-31T09:29:56;5.95;;;3.63;;
76155;SDS011;64906;51.290;7.348;2023-10-31T09:32:21;5.68;;;3.42;;
76155;SDS011;64906;51.290;7.348;2023-10-31T09:34:46;6.10;;;3.70;;
76155;SDS011;64906;51.290;7.348;2023-10-31T09:37:12;5.70;;;3.70;;
76155;SDS011;64906;51.290;7.348;2023-10-31T09:39:37;5.30;;;3.20;;
76155;SDS011;64906;51.290;7.348;2023-10-31T09:42:03;5.38;;;3.40;;
76155;SDS011;64906;51.290;7.348;2023-10-31T09:44:28;7.03;;;4.32;;
76155;SDS011;64906;51.290;7.348;2023-10-31T09:46:54;16.33;;;12.45;;
76155;SDS011;64906;51.290;7.348;2023-10-31T09:49:20;22.45;;;16.98;;
76155;SDS011;64906;51.290;7.348;2023-10-31T09:51:46;28.37;;;19.50;;
76155;SDS011;64906;51.290;7.348;2023-10-31T09:54:12;31.13;;;22.02;;
76155;SDS011;64906;51.290;7.348;2023-10-31T09:56:40;31.63;;;22.52;;
76155;SDS011;64906;51.290;7.348;2023-10-31T09:59:06;31.45;;;24.00;;
76155;SDS011;64906;51.290;7.348;2023-10-31T10:01:32;32.47;;;23.83;;
76155;SDS011;64906;51.290;7.348;2023-10-31T10:03:57;29.85;;;22.17;;
76155;SDS011;64906;51.290;7.348;2023-10-31T10:06:24;30.10;;;22.80;;
76155;SDS011;64906;51.290;7.348;2023-10-31T10:08:49;30.38;;;23.55;;
76155;SDS011;64906;51.290;7.348;2023-10-31T10:11:15;30.40;;;22.30;;
76155;SDS011;64906;51.290;7.348;2023-10-31T10:13:40;29.65;;;21.98;;
76155;SDS011;64906;51.290;7.348;2023-10-31T10:16:06;31.33;;;21.33;;
76155;SDS011;64906;51.290;7.348;2023-10-31T10:18:32;29.38;;;22.95;;
76155;SDS011;64906;51.290;7.348;2023-10-31T10:21:06;30.73;;;21.08;;
76155;SDS011;64906;51.290;7.348;2023-10-31T10:23:32;29.48;;;20.95;;
76155;SDS011;64906;51.290;7.348;2023-10-31T10:25:59;30.80;;;21.40;;
76155;SDS011;64906;51.290;7.348;2023-10-31T10:28:25;33.28;;;22.10;;
76155;SDS011;64906;51.290;7.348;2023-10-31T10:30:52;31.08;;;22.13;;
76155;SDS011;64906;51.290;7.348;2023-10-31T10:33:18;28.75;;;20.27;;
76155;SDS011;64906;51.290;7.348;2023-10-31T10:35:45;27.42;;;19.30;;
76155;SDS011;64906;51.290;7.348;2023-10-31T10:38:11;30.15;;;21.30;;
76155;SDS011;64906;51.290;7.348;2023-10-31T10:40:42;32.33;;;22.58;;
76155;SDS011;64906;51.290;7.348;2023-10-31T10:43:24;29.75;;;20.77;;
76155;SDS011;64906;51.290;7.348;2023-10-31T10:45:53;29.73;;;21.02;;
76155;SDS011;64906;51.290;7.348;2023-10-31T10:48:23;26.95;;;18.90;;
76155;SDS011;64906;51.290;7.348;2023-10-31T10:53:37;27.33;;;20.40;;
76155;SDS011;64906;51.290;7.348;2023-10-31T10:56:13;28.70;;;20.88;;
76155;SDS011;64906;51.290;7.348;2023-10-31T11:01:26;26.10;;;17.67;;
76155;SDS011;64906;51.290;7.348;2023-10-31T11:03:54;27.92;;;18.50;;
76155;SDS011;64906;51.290;7.348;2023-10-31T11:06:20;29.25;;;21.00;;
76155;SDS011;64906;51.290;7.348;2023-10-31T11:08:46;33.42;;;23.00;;
76155;SDS011;64906;51.290;7.348;2023-10-31T11:11:12;36.47;;;23.58;;
76155;SDS011;64906;51.290;7.348;2023-10-31T11:13:38;41.47;;;26.70;;
76155;SDS011;64906;51.290;7.348;2023-10-31T11:16:09;36.38;;;27.42;;
76155;SDS011;64906;51.290;7.348;2023-10-31T11:18:51;40.90;;;28.42;;
76155;SDS011;64906;51.290;7.348;2023-10-31T11:21:17;35.28;;;26.95;;
76155;SDS011;64906;51.290;7.348;2023-10-31T11:23:43;40.10;;;29.90;;
76155;SDS011;64906;51.290;7.348;2023-10-31T11:26:08;40.13;;;28.77;;
76155;SDS011;64906;51.290;7.348;2023-10-31T11:28:33;37.27;;;25.50;;
76155;SDS011;64906;51.290;7.348;2023-10-31T11:31:00;44.25;;;27.77;;
76155;SDS011;64906;51.290;7.348;2023-10-31T11:33:27;41.90;;;27.95;;
76155;SDS011;64906;51.290;7.348;2023-10-31T11:36:02;38.15;;;27.35;;
76155;SDS011;64906;51.290;7.348;2023-10-31T11:38:35;39.50;;;27.45;;
76155;SDS011;64906;51.290;7.348;2023-10-31T11:41:02;36.80;;;26.92;;
76155;SDS011;64906;51.290;7.348;2023-10-31T11:46:05;34.28;;;27.08;;
76155;SDS011;64906;51.290;7.348;2023-10-31T11:48:47;32.97;;;21.50;;
76155;SDS011;64906;51.290;7.348;2023-10-31T11:51:16;28.20;;;20.20;;
76155;SDS011;64906;51.290;7.348;2023-10-31T11:53:43;32.70;;;21.15;;
76155;SDS011;64906;51.290;7.348;2023-10-31T11:56:09;25.10;;;17.95;;
76155;SDS011;64906;51.290;7.348;2023-10-31T11:58:36;24.77;;;17.40;;
76155;SDS011;64906;51.290;7.348;2023-10-31T12:01:02;24.80;;;15.77;;
76155;SDS011;64906;51.290;7.348;2023-10-31T12:03:35;21.92;;;16.38;;
76155;SDS011;64906;51.290;7.348;2023-10-31T12:06:02;25.23;;;16.85;;
76155;SDS011;64906;51.290;7.348;2023-10-31T12:08:32;24.20;;;15.85;;
76155;SDS011;64906;51.290;7.348;2023-10-31T12:11:03;23.15;;;15.43;;
76155;SDS011;64906;51.290;7.348;2023-10-31T12:13:29;21.83;;;15.88;;
76155;SDS011;64906;51.290;7.348;2023-10-31T12:15:54;22.50;;;15.88;;
76155;SDS011;64906;51.290;7.348;2023-10-31T12:18:20;19.60;;;13.77;;
76155;SDS011;64906;51.290;7.348;2023-10-31T12:20:49;24.80;;;15.50;;
76155;SDS011;64906;51.290;7.348;2023-10-31T12:23:15;21.90;;;15.70;;
76155;SDS011;64906;51.290;7.348;2023-10-31T12:25:48;21.80;;;13.25;;
76155;SDS011;64906;51.290;7.348;2023-10-31T12:28:20;19.25;;;13.75;;
76155;SDS011;64906;51.290;7.348;2023-10-31T12:30:47;21.60;;;14.77;;
76155;SDS011;64906;51.290;7.348;2023-10-31T12:33:14;21.75;;;14.32;;
76155;SDS011;64906;51.290;7.348;2023-10-31T12:35:40;20.27;;;14.48;;
76155;SDS011;64906;51.290;7.348;2023-10-31T12:38:06;20.73;;;14.63;;
76155;SDS011;64906;51.290;7.348;2023-10-31T12:40:34;20.80;;;13.43;;
76155;SDS011;64906;51.290;7.348;2023-10-31T12:43:00;21.75;;;15.13;;
76155;SDS011;64906;51.290;7.348;2023-10-31T12:45:27;19.30;;;14.30;;
76155;SDS011;64906;51.290;7.348;2023-10-31T12:50:32;19.50;;;13.40;;
76155;SDS011;64906;51.290;7.348;2023-10-31T12:52:58;19.27;;;13.88;;
76155;SDS011;64906;51.290;7.348;2023-10-31T12:55:25;16.38;;;11.88;;
76155;SDS011;64906;51.290;7.348;2023-10-31T12:57:53;18.30;;;14.05;;
76155;SDS011;64906;51.290;7.348;2023-10-31T13:00:19;18.00;;;13.68;;
76155;SDS011;64906;51.290;7.348;2023-10-31T13:02:52;18.67;;;13.45;;
76155;SDS011;64906;51.290;7.348;2023-10-31T13:05:26;18.73;;;13.65;;
76155;SDS011;64906;51.290;7.348;2023-10-31T13:07:52;18.88;;;13.63;;
76155;SDS011;64906;51.290;7.348;2023-10-31T13:10:20;19.02;;;13.02;;
76155;SDS011;64906;51.290;7.348;2023-10-31T13:12:47;17.08;;;12.55;;
76155;SDS011;64906;51.290;7.348;2023-10-31T13:15:15;16.85;;;12.98;;
76155;SDS011;64906;51.290;7.348;2023-10-31T13:17:43;18.17;;;12.90;;
76155;SDS011;64906;51.290;7.348;2023-10-31T13:20:09;20.17;;;12.23;;
76155;SDS011;64906;51.290;7.348;2023-10-31T13:22:36;17.55;;;12.43;;
76155;SDS011;64906;51.290;7.348;2023-10-31T13:25:05;18.70;;;12.98;;
76155;SDS011;64906;51.290;7.348;2023-10-31T13:27:34;17.40;;;12.10;;
76155;SDS011;64906;51.290;7.348;2023-10-31T13:30:02;17.35;;;12.68;;
76155;SDS011;64906;51.290;7.348;2023-10-31T13:32:28;17.38;;;12.32;;
76155;SDS011;64906;51.290;7.348;2023-10-31T13:34:53;18.10;;;13.00;;
76155;SDS011;64906;51.290;7.348;2023-10-31T13:37:19;17.88;;;11.95;;
76155;SDS011;64906;51.290;7.348;2023-10-31T13:39:44;15.60;;;12.30;;
76155;SDS011;64906;51.290;7.348;2023-10-31T13:42:09;18.50;;;12.83;;
76155;SDS011;64906;51.290;7.348;2023-10-31T13:44:39;16.80;;;12.70;;
76155;SDS011;64906;51.290;7.348;2023-10-31T13:47:04;16.73;;;12.45;;
76155;SDS011;64906;51.290;7.348;2023-10-31T13:49:30;15.88;;;11.43;;
76155;SDS011;64906;51.290;7.348;2023-10-31T13:51:55;17.17;;;12.23;;
76155;SDS011;64906;51.290;7.348;2023-10-31T13:54:20;17.03;;;12.00;;
76155;SDS011;64906;51.290;7.348;2023-10-31T13:56:46;16.98;;;12.20;;
76155;SDS011;64906;51.290;7.348;2023-10-31T13:59:12;16.05;;;12.18;;
76155;SDS011;64906;51.290;7.348;2023-10-31T14:01:38;16.45;;;11.73;;
76155;SDS011;64906;51.290;7.348;2023-10-31T14:04:04;18.35;;;12.65;;
76155;SDS011;64906;51.290;7.348;2023-10-31T14:06:31;16.35;;;11.77;;
76155;SDS011;64906;51.290;7.348;2023-10-31T14:08:58;15.90;;;11.52;;
76155;SDS011;64906;51.290;7.348;2023-10-31T14:11:23;15.07;;;11.40;;
76155;SDS011;64906;51.290;7.348;2023-10-31T14:13:49;15.45;;;11.13;;
76155;SDS011;64906;51.290;7.348;2023-10-31T14:16:15;15.82;;;10.95;;
76155;SDS011;64906;51.290;7.348;2023-10-31T14:18:41;15.60;;;12.18;;
76155;SDS011;64906;51.290;7.348;2023-10-31T14:21:07;16.92;;;11.82;;
76155;SDS011;64906;51.290;7.348;2023-10-31T14:23:33;16.40;;;10.55;;
76155;SDS011;64906;51.290;7.348;2023-10-31T14:25:59;15.90;;;11.80;;
76155;SDS011;64906;51.290;7.348;2023-10-31T14:28:24;17.15;;;11.85;;
76155;SDS011;64906;51.290;7.348;2023-10-31T14:30:49;14.90;;;11.50;;
76155;SDS011;64906;51.290;7.348;2023-10-31T14:33:17;16.27;;;11.52;;
76155;SDS011;64906;51.290;7.348;2023-10-31T14:35:42;15.55;;;11.45;;
76155;SDS011;64906;51.290;7.348;2023-10-31T14:38:08;16.00;;;11.85;;
76155;SDS011;64906;51.290;7.348;2023-10-31T14:40:33;16.03;;;10.70;;